Garden Spring, Nevada Weather observations

Data are for 10 minute period ending at time listed.
 Day   Time    Ave.   Ave.  Ave.  Vector   Max.   Stn.    Total    Solar   Ave.  
  of    of     Air    Rel.  Wind   Wind    Wind   Baro.  Precip.   Rad.    Soil  
Year   Day     Temp.  Hum.  Speed  Dir.    Gust   Pres.                    Temp. 
2024   (PST)    F      %     mph   deg.    mph     mb.     in.     W/m2     F    
--------------------------------------------------------------------------------- 
 150   10:20   80.8    13    6.3   179     14.2   853.0    0.00    1007    74.6  
 150   10:30   81.1    13    8.6   178     14.9   852.9    0.00    1020    75.0  
 150   10:40   81.2    13    4.7   175     11.6   852.8    0.00    1031    75.3  
 150   10:50   82.1    13    5.6   211     10.8   852.6    0.00    1040    75.7  
 150   11:00   81.7    13    6.3   212     11.9   852.5    0.00    1044    76.0  
 150   11:10   82.0    12    6.8   195     14.6   852.5    0.00    1050    76.3  
 150   11:20   81.9    13    7.2   173     14.7   852.5    0.00    1051    76.6  
 150   11:30   82.2    12    9.7   180     18.5   852.4    0.00    1053    76.9  
 150   11:40   82.6    12    6.3   149     14.2   852.4    0.00    1056    77.2  
 150   11:50   83.1    12    5.8   161     13.2   852.3    0.00    1055    77.5  
 150   12:00   83.4    12    6.4   188     12.3   852.2    0.00    1049    77.6  
 150   12:10   83.1    12    6.9   194     12.4   852.1    0.00    1047    78.3  
 150   12:20   83.3    12    7.1   216     15.8   852.1    0.00    1042    78.8  
 150   12:30   84.3    12    7.2   223     15.1   852.1    0.00    1037    79.3  
 150   12:40   83.9    12    5.1   243     14.4   852.1    0.00    1025    79.8  
 150   12:50   83.9    12    6.5   214     12.2   852.0    0.00    1017    80.2  
 150   13:00   84.2    12    5.9   214     14.1   851.9    0.00    1002    80.6  
 150   13:10   83.6    11    7.6   222     14.0   851.8    0.00     996    81.0  
 150   13:20   84.3    11    6.8   240     15.6   851.7    0.00     978    81.4  
 150   13:30   84.1    10    6.4   234     13.0   851.7    0.00     964    81.8  
 150   13:40   84.7    10    5.2   184     13.8   851.7    0.00     945    82.2  
 150   13:50   85.6    10    4.5   269     13.1   851.6    0.00     926    82.7  
 150   14:00   85.5    10    6.5   267     13.3   851.6    0.00     902    83.1  
 150   14:10   84.9    10    8.0   246     14.9   851.6    0.00     880    83.4  
 150   14:20   85.1     9    4.7   288     10.3   851.5    0.00     855    83.7  
 150   14:30   84.9    10    5.2   238     13.6   851.4    0.00     828    84.0  
 150   14:40   85.2    10    7.8   207     14.2   851.4    0.00     803    84.3  
 150   14:50   84.7    10    5.4   218     11.7   851.3    0.00     772    84.6  
 150   15:00   84.7     9    7.5   235     16.1   851.3    0.00     742    84.8  
 150   15:10   85.1     9    6.1   283     12.5   851.2    0.00     717    85.1  
 150   15:20   85.6     9    5.2   263     12.6   851.1    0.00     683    85.3  
 150   15:30   85.3     9    5.2   254     10.4   851.1    0.00     649    85.6  
 150   15:40   84.7     9    8.0   215     13.8   851.0    0.00     615    85.7  
 150   15:50   85.4    10    3.0   355      9.1   851.0    0.00     583    85.9  
 150   16:00   86.6    10    3.1   242      8.5   851.0    0.00     549    86.1  
 150   16:10   85.5    10    5.8   252     11.4   850.9    0.00     513    86.3  
 150   16:20   85.6    10    3.2   247      7.9   850.9    0.00     479    86.3  
 150   16:30   84.7    11    5.1   204     10.1   850.8    0.00     441    86.4  
 150   16:40   85.1    11    2.5   348      6.5   850.7    0.00     405    86.4  
 150   16:50   85.1    11    4.0   236      9.8   850.7    0.00     368    86.4  
 150   17:00   84.5    11    3.3   206     11.3   850.6    0.00     330    86.4  
 150   17:10   83.5    11    6.0   238     10.5   850.6    0.00     294    86.4  
 150   17:20   83.1    11    4.6   218      8.4   850.6    0.00     259    86.3  
 150   17:30   82.9    12    3.4   206      5.9   850.6    0.00     223    86.2  
 150   17:40   82.1    12    3.4   205      4.9   850.7    0.00     191    86.1  
 150   17:50   81.7    12    3.7   217      8.6   850.7    0.00     159    85.9  
 150   18:00   80.9    12    4.2   201      8.2   850.7    0.00     130    85.8  
 150   18:10   80.1    12    4.1   212      6.0   850.7    0.00      98    85.6  
 150   18:20   79.2    13    3.8   227      5.2   850.8    0.00      63    85.4  
 150   18:30   77.3    14    4.7   221      6.8   850.8    0.00      20    85.2  
 150   18:40   77.0    13    5.6   219      8.2   850.8    0.00      13    84.9  
 150   18:50   75.9    14    4.3   227      5.7   850.9    0.00       7    84.7  
 150   19:00   74.0    15    4.0   233      6.2   850.9    0.00       3    84.5  
 150   19:10   72.8    16    4.0   248      5.4   850.9    0.00       1    84.3  
 150   19:20   72.3    16    4.2   236      5.7   851.0    0.00       1    84.1  
 150   19:30   72.5    15    3.5   235      5.1   851.1    0.00       0    83.9  
 150   19:40   72.1    15    3.7   243      5.1   851.2    0.00       0    83.8  
 150   19:50   71.6    15    4.1   239      5.4   851.3    0.00       0    83.6  
 150   20:00   72.2    14    4.0   221      5.8   851.3    0.00       0    83.4  
 150   20:10   72.5    14    3.8   232      6.3   851.4    0.00       0    83.4  
 150   20:20   72.8    14    4.1   231      6.7   851.5    0.00       0    83.2  
 150   20:30   72.8    14    3.5   229      4.9   851.6    0.00       0    83.1  
 150   20:40   72.4    14    3.6   226      5.4   851.7    0.00       0    82.9  
 150   20:50   72.4    14    3.6   230      5.7   851.8    0.00       0    82.7  
 150   21:00   71.1    15    4.2   251      6.1   851.8    0.00       0    82.4  
 150   21:10   68.6    18    4.5   273      6.6   851.9    0.00       0    82.1  
 150   21:20   66.6    20    4.4   254      5.3   851.9    0.00       0    81.8  
 150   21:30   65.1    21    3.9   258      5.4   852.0    0.00       0    81.6  
 150   21:40   66.1    19    4.1   264      5.4   851.9    0.00       0    81.3  
 150   21:50   67.7    18    3.9   258      5.3   851.8    0.00       0    81.2  
 150   22:00   68.8    17    3.7   254      5.3   851.8    0.00       0    81.1  
 150   22:10   68.9    17    3.4   272      5.7   851.8    0.00       0    80.9  
 150   22:20   67.8    18    3.9   279      6.7   851.8    0.00       0    80.7  
 150   22:30   67.4    18    3.7   276      5.3   851.9    0.00       0    80.5  
 150   22:40   66.5    20    3.8   263      6.2   851.9    0.00       0    80.3  
 150   22:50   65.2    21    3.5   275      4.9   851.9    0.00       0    80.1  
 150   23:00   65.1    21    4.7   286      6.8   851.8    0.00       0    79.8  
 150   23:10   66.5    20    4.3   271      6.5   851.8    0.00       0    79.7  
 150   23:20   65.8    21    3.7   268      5.9   851.8    0.00       0    79.6  
 150   23:30   64.3    22    4.4   281      6.8   851.8    0.00       0    79.3  
 150   23:40   63.7    23    3.7   268      5.7   851.8    0.00       0    79.1  
 150   23:50   62.7    24    4.4   263      6.0   851.7    0.00       0    78.8  
 151    0:00   65.5    21    5.8   279      7.4   851.7    0.00       0    78.7  
 151    0:10   66.7    20    5.5   274      7.6   851.7    0.00       0    78.7  
 151    0:20   67.4    20    5.1   276      6.9   851.7    0.00       0    78.6  
 151    0:30   66.4    21    5.1   301     10.6   851.7    0.00       0    78.4  
 151    0:40   67.5    21    6.7   311     11.5   851.8    0.00       0    78.3  
 151    0:50   68.4    21    5.1   312     10.4   851.8    0.00       0    78.2  
 151    1:00   67.2    21    5.4   288      9.5   851.9    0.00       0    77.9  
 151    1:10   65.8    22    4.7   284      6.5   852.0    0.00       0    77.6  
 151    1:20   65.1    22    5.1   257      7.6   852.1    0.00       0    77.4  
 151    1:30   63.6    24    4.9   259      6.1   852.2    0.00       0    77.1  
 151    1:40   62.1    26    4.9   264      6.9   852.2    0.00       0    76.9  
 151    1:50   61.4    27    5.7   269      8.9   852.2    0.00       0    76.6  
 151    2:00   60.4    28    4.0   264      5.5   852.3    0.00       0    76.5  
 151    2:10   59.9    31    4.4   269      6.3   852.4    0.00       0    76.2  
 151    2:20   59.0    33    4.6   276      6.1   852.4    0.00       0    76.1  
 151    2:30   59.6    34    4.5   277      6.4   852.4    0.00       0    76.0  
 151    2:40   62.3    32    5.2   291      7.4   852.4    0.00       0    75.9  
 151    2:50   63.6    31    5.1   284      8.0   852.4    0.00       0    76.0  
 151    3:00   64.0    31    4.1   292      7.0   852.5    0.00       0    75.9  
 151    3:10   62.6    32    2.9   255      5.3   852.6    0.00       0    75.7  
 151    3:20   62.6    32    2.4   291      4.6   852.6    0.00       0    75.5  
 151    3:30   61.9    33    3.5   267      6.8   852.6    0.00       0    75.3  
 151    3:40   61.2    34    2.7   275      8.5   852.6    0.00       0    75.1  
 151    3:50   60.1    36    3.7   290      7.4   852.7    0.00       0    74.9  
 151    4:00   58.9    38    4.6   264      6.2   852.9    0.00       0    74.8  
 151    4:10   58.5    39    4.9   278      7.6   852.9    0.00       1    74.6  
 151    4:20   59.7    36    4.8   312      7.2   853.0    0.00       3    74.5  
 151    4:30   61.3    34    4.2   310      6.7   853.2    0.00       7    74.5  
 151    4:40   61.3    34    4.3   306      6.1   853.2    0.00      20    74.4  
 151    4:50   62.7    32    4.4   311      7.7   853.2    0.00      43    74.4  
 151    5:00   64.2    31    3.8   312      6.5   853.3    0.00      73    74.6  
 151    5:10   65.8    30    1.4   326      3.0   853.4    0.00     108    74.9  
 151    5:20   67.1    30    1.0   267      3.1   853.4    0.00     138    75.0  
 151    5:30   67.5    30    1.4   266      2.4   853.5    0.00     168    75.1  
 151    5:40   68.9    28    1.1   284      4.0   853.6    0.00     200    75.2  
 151    5:50   69.2    28    3.5   329      6.7   853.6    0.00     234    75.2  
 151    6:00   69.4    28    4.5   328      7.1   853.7    0.00     268    75.1  
 151    6:10   69.1    28    5.6   332      9.1   853.7    0.00     303    74.7  
 151    6:20   69.3    27    6.0   329     10.4   853.8    0.00     339    74.4  
 151    6:30   70.1    27    5.3   331      9.1   853.8    0.00     374    74.3  
 151    6:40   71.9    26    4.1   356      7.9   853.9    0.00     411    74.1  
 151    6:50   72.5    25    5.8   359     10.1   854.0    0.00     446    73.9  
 151    7:00   73.1    25    4.7   348      9.7   854.0    0.00     481    73.8  
 151    7:10   73.2    24    5.9   350     12.9   854.1    0.00     515    73.7  
 151    7:20   73.3    24    7.2   358     13.0   854.1    0.00     550    73.6  
 151    7:30   74.3    24    5.7     1     10.8   854.1    0.00     583    73.5  
 151    7:40   75.7    22    6.3    11     12.2   854.1    0.00     617    73.5  
 151    7:50   75.8    22    6.2     1     10.6   854.1    0.00     650    73.5  
 151    8:00   75.5    22    7.7   360     12.3   854.1    0.00     682    73.4  
 151    8:10   75.2    22    7.6   360     11.7   854.1    0.00     711    73.3  
 151    8:20   75.8    22    6.6   342     12.3   854.1    0.00     740    73.3  
 151    8:30   76.6    21    5.7   345     12.5   854.1    0.00     769    73.4  
 151    8:40   77.0    21    6.6   354     13.5   854.0    0.00     796    73.5  
 151    8:50   77.5    20    6.2   351     11.9   854.1    0.00     821    73.6  
 151    9:00   78.0    20    5.9   356     12.0   854.1    0.00     846    73.7  
 151    9:10   78.5    20    6.7   351     13.4   854.0    0.00     871    73.8  
 151    9:20   79.7    20    5.3   359      9.5   854.0    0.00     895    74.0  
 151    9:30   80.2    19    3.2     2      6.4   853.9    0.00     916    74.2  
 151    9:40   79.9    19    4.7   333     10.5   853.9    0.00     935    74.5  
 151    9:50   78.8    19    3.4   212      8.4   853.9    0.00     954    74.6  
 151   10:00   79.9    19    5.0     2      9.3   853.8    0.00     971    74.9  
 151   10:10   80.9    18    4.0   315      9.7   853.8    0.00     985    75.1  

Return to Garden Spring, Nevada graphs page.


Western Regional Climate Center,wrcc@dri.edu